createdAt,value
2023-11-09T00:01:31.303Z,2.03
2023-11-09T00:06:33.454Z,1.73
2023-11-09T00:11:36.224Z,2.13
2023-11-09T00:16:37.070Z,2.22
2023-11-09T00:21:39.209Z,2.20
2023-11-09T00:26:43.016Z,1.63
2023-11-09T00:31:43.932Z,1.98
2023-11-09T00:36:46.087Z,2.10
2023-11-09T00:41:46.886Z,2.00
2023-11-09T00:46:47.700Z,2.28
2023-11-09T00:51:49.847Z,2.50
2023-11-09T00:56:50.691Z,1.67
2023-11-09T01:01:51.464Z,2.40
2023-11-09T01:06:53.637Z,2.65
2023-11-09T01:11:54.422Z,2.42
2023-11-09T01:16:55.213Z,2.55
2023-11-09T01:21:57.477Z,2.55
2023-11-09T01:26:58.302Z,2.58
2023-11-09T01:31:59.813Z,2.85
2023-11-09T01:37:01.992Z,2.90
2023-11-09T01:42:03.116Z,2.70
2023-11-09T01:47:04.548Z,2.85
2023-11-09T01:52:07.755Z,3.00
2023-11-09T01:57:11.389Z,3.08
2023-11-09T02:02:12.399Z,2.40
2023-11-09T02:07:14.695Z,2.60
2023-11-09T02:12:15.543Z,3.50
2023-11-09T02:17:16.513Z,2.80
2023-11-09T02:22:20.083Z,2.45
2023-11-09T02:27:22.289Z,2.70
2023-11-09T02:32:23.130Z,3.33
2023-11-09T02:37:26.056Z,2.60
2023-11-09T02:42:28.256Z,3.22
2023-11-09T02:47:29.102Z,2.63
2023-11-09T02:52:30.009Z,2.55
2023-11-09T02:57:32.186Z,3.30
2023-11-09T03:02:33.682Z,3.03
2023-11-09T03:07:34.482Z,3.75
2023-11-09T03:12:36.787Z,3.17
2023-11-09T03:17:38.500Z,3.25
2023-11-09T03:22:39.393Z,3.35
2023-11-09T03:27:41.597Z,4.50
2023-11-09T03:32:42.439Z,3.67
2023-11-09T03:37:43.905Z,3.92
2023-11-09T03:42:46.905Z,3.40
2023-11-09T03:47:47.754Z,3.05
2023-11-09T03:52:48.808Z,3.50
2023-11-09T03:57:50.942Z,3.95
2023-11-09T04:02:51.790Z,3.47
2023-11-09T04:07:52.669Z,4.05
2023-11-09T04:12:54.803Z,3.80
2023-11-09T04:17:55.612Z,3.22
2023-11-09T04:22:56.433Z,3.55
2023-11-09T04:27:58.936Z,3.83
2023-11-09T04:33:01.284Z,3.78
2023-11-09T04:38:03.790Z,4.35
2023-11-09T04:43:07.344Z,4.63
2023-11-09T04:48:09.683Z,4.43
2023-11-09T04:53:30.895Z,4.70
2023-11-09T04:58:49.139Z,4.50
2023-11-09T05:04:07.843Z,4.47
2023-11-09T05:09:08.737Z,3.95
2023-11-09T05:14:10.847Z,4.55
2023-11-09T05:19:12.023Z,3.90
2023-11-09T05:24:12.826Z,3.78
2023-11-09T05:29:14.949Z,3.60
2023-11-09T05:34:16.352Z,3.60
2023-11-09T05:39:17.223Z,3.75
2023-11-09T05:44:19.405Z,3.20
2023-11-09T05:49:20.287Z,3.10
2023-11-09T05:54:21.379Z,2.47
2023-11-09T05:59:24.556Z,3.25
2023-11-09T06:04:25.582Z,3.65
2023-11-09T06:09:26.641Z,3.05
2023-11-09T06:14:29.158Z,3.00
2023-11-09T06:19:30.206Z,3.33
2023-11-09T06:24:31.091Z,3.22
2023-11-09T06:29:34.085Z,3.50
2023-11-09T06:34:35.650Z,3.85
2023-11-09T06:39:36.547Z,2.88
2023-11-09T06:44:38.647Z,2.65
2023-11-09T06:49:39.703Z,3.10
2023-11-09T06:54:41.826Z,3.25
2023-11-09T06:59:43.991Z,2.70
2023-11-09T07:04:44.965Z,4.32
2023-11-09T07:09:46.495Z,2.50
2023-11-09T07:14:48.732Z,2.90
2023-11-09T07:19:50.120Z,2.75
2023-11-09T07:25:01.689Z,2.97
2023-11-09T07:30:11.257Z,3.72
2023-11-09T07:35:12.014Z,3.05
2023-11-09T07:40:14.769Z,2.70
2023-11-09T07:45:17.396Z,2.58
2023-11-09T07:50:18.382Z,2.88
2023-11-09T07:55:20.487Z,2.47
2023-11-09T08:00:24.386Z,3.33
2023-11-09T08:05:26.590Z,2.60
2023-11-09T08:10:28.483Z,2.78
2023-11-09T08:15:30.683Z,2.72
2023-11-09T08:20:32.497Z,3.00
2023-11-09T08:25:33.281Z,3.08
2023-11-09T08:30:35.471Z,2.60
2023-11-09T08:35:36.532Z,3.50
2023-11-09T08:40:37.736Z,2.90
2023-11-09T08:45:40.470Z,2.70
2023-11-09T08:50:42.332Z,1.83
2023-11-09T08:55:43.169Z,2.22
2023-11-09T09:00:45.886Z,2.20
2023-11-09T09:05:46.740Z,2.40
2023-11-09T09:10:58.453Z,2.30
2023-11-09T09:15:59.250Z,2.25
2023-11-09T09:21:00.248Z,2.10
2023-11-09T09:26:14.881Z,1.73
2023-11-09T09:31:17.623Z,2.20
2023-11-09T09:36:20.064Z,1.63
2023-11-09T09:41:30.156Z,2.72
2023-11-09T09:46:34.580Z,1.95
2023-11-09T09:51:37.928Z,1.95
2023-11-09T09:56:41.238Z,2.20
2023-11-09T10:01:48.804Z,2.03
2023-11-09T10:06:49.956Z,2.25
2023-11-09T10:11:54.219Z,2.20
2023-11-09T10:16:55.526Z,1.52
2023-11-09T10:22:06.425Z,2.25
2023-11-09T10:27:09.971Z,1.60
2023-11-09T10:32:20.495Z,1.58
2023-11-09T10:37:21.527Z,1.70
2023-11-09T10:42:27.305Z,2.00
2023-11-09T10:47:34.305Z,1.60
2023-11-09T10:52:36.495Z,1.00
2023-11-09T10:57:41.451Z,0.60
2023-11-09T11:02:51.433Z,1.15
2023-11-09T11:07:54.043Z,0.82
2023-11-09T11:12:59.932Z,0.73
2023-11-09T11:18:14.906Z,0.70
2023-11-09T11:23:46.409Z,0.70
2023-11-09T11:28:49.870Z,0.70
2023-11-09T11:33:53.039Z,0.88
2023-11-09T11:39:19.080Z,0.80
2023-11-09T11:44:32.153Z,0.60
2023-11-09T11:49:37.552Z,1.10
2023-11-09T11:54:38.482Z,0.80
2023-11-09T11:59:42.147Z,0.50
2023-11-09T12:04:48.468Z,0.68
2023-11-09T12:09:50.157Z,2.20
2023-11-09T12:14:52.896Z,0.90
2023-11-09T12:19:54.532Z,1.50
2023-11-09T12:25:01.637Z,1.20
2023-11-09T12:30:04.565Z,0.70
2023-11-09T12:35:05.919Z,0.50
2023-11-09T12:40:08.201Z,1.40
2023-11-09T12:45:12.907Z,1.92
2023-11-09T12:50:18.211Z,1.02
2023-11-09T12:55:24.407Z,1.02
2023-11-09T13:00:31.181Z,1.00
2023-11-09T13:05:34.530Z,1.00
2023-11-09T13:10:39.390Z,1.00
2023-11-09T13:15:43.242Z,0.88
2023-11-09T13:20:48.751Z,0.70
2023-11-09T13:25:51.163Z,1.48
2023-11-09T13:30:55.326Z,1.00
2023-11-09T13:35:58.648Z,1.10
2023-11-09T13:41:16.780Z,1.75
2023-11-09T13:46:24.043Z,1.00
2023-11-09T13:51:28.730Z,0.90
2023-11-09T13:57:03.101Z,0.95
2023-11-09T14:02:10.560Z,0.90
2023-11-09T14:07:14.295Z,0.80
2023-11-09T14:12:35.668Z,1.90
2023-11-09T14:17:38.899Z,2.22
2023-11-09T14:22:41.013Z,1.17
2023-11-09T14:27:41.972Z,1.00
2023-11-09T14:32:45.333Z,1.30
2023-11-09T14:37:47.332Z,1.10
2023-11-09T14:42:52.485Z,1.15
2023-11-09T14:48:02.320Z,1.38
2023-11-09T14:53:20.181Z,1.65
2023-11-09T14:58:32.167Z,1.30
2023-11-09T15:03:35.707Z,1.38
2023-11-09T15:08:38.408Z,1.30
2023-11-09T15:13:39.366Z,1.45
2023-11-09T15:18:43.821Z,1.90
2023-11-09T15:23:45.352Z,1.50
2023-11-09T15:28:46.290Z,1.60
2023-11-09T15:33:48.454Z,1.20
2023-11-09T15:38:50.655Z,1.27
2023-11-09T15:43:55.788Z,1.40
2023-11-09T15:49:00.170Z,1.40
2023-11-09T15:54:01.058Z,1.60
2023-11-09T15:59:01.951Z,1.85
2023-11-09T16:04:05.808Z,3.85
2023-11-09T16:09:10.870Z,1.98
2023-11-09T16:14:11.663Z,2.25
2023-11-09T16:19:14.451Z,2.28
2023-11-09T16:24:16.486Z,2.50
2023-11-09T16:29:17.631Z,2.08
2023-11-09T16:34:20.171Z,2.10
2023-11-09T16:39:22.616Z,2.13
2023-11-09T16:44:25.478Z,2.05
2023-11-09T16:49:27.730Z,2.05
2023-11-09T16:54:28.573Z,2.58
2023-11-09T16:59:29.740Z,2.08
2023-11-09T17:04:31.986Z,2.72
2023-11-09T17:09:33.099Z,2.10
2023-11-09T17:14:33.905Z,2.58
2023-11-09T17:19:36.077Z,2.72
2023-11-09T17:24:38.122Z,2.65
2023-11-09T17:29:38.900Z,2.80
2023-11-09T17:34:41.032Z,2.45
2023-11-09T17:39:42.596Z,2.50
2023-11-09T17:44:44.587Z,2.38
2023-11-09T17:49:49.533Z,2.55
2023-11-09T17:54:50.727Z,1.92
2023-11-09T17:59:51.573Z,1.90
2023-11-09T18:04:53.801Z,2.22
2023-11-09T18:09:54.886Z,2.50
2023-11-09T18:14:58.304Z,2.45
2023-11-09T18:20:00.566Z,2.20
2023-11-09T18:25:01.420Z,3.55
2023-11-09T18:30:02.252Z,2.70
2023-11-09T18:35:07.561Z,2.53
2023-11-09T18:40:10.280Z,2.45
2023-11-09T18:45:11.431Z,2.50
2023-11-09T18:55:18.063Z,4.10
2023-11-09T19:00:19.886Z,2.60
2023-11-09T19:05:22.156Z,4.03
2023-11-09T19:10:23.310Z,4.40
2023-11-09T19:15:26.257Z,4.90
2023-11-09T19:25:35.251Z,3.10
2023-11-09T19:30:36.141Z,2.58
2023-11-09T19:35:38.408Z,2.83
2023-11-09T19:40:46.414Z,2.70
2023-11-09T19:45:48.080Z,3.25
2023-11-09T19:50:50.593Z,2.95
2023-11-09T19:55:52.229Z,3.33
2023-11-09T20:00:53.470Z,3.10
2023-11-09T20:05:56.467Z,3.20
2023-11-09T20:10:57.236Z,3.47
2023-11-09T20:15:58.296Z,3.17
2023-11-09T20:21:00.911Z,3.42
2023-11-09T20:26:01.750Z,3.17
2023-11-09T20:31:02.650Z,3.50
2023-11-09T20:36:05.414Z,3.67
2023-11-09T20:41:06.287Z,3.22
2023-11-09T20:46:10.307Z,3.58
2023-11-09T20:51:14.765Z,3.03
2023-11-09T20:56:15.978Z,3.65
2023-11-09T21:01:16.835Z,6.15
2023-11-09T21:06:19.186Z,3.40
2023-11-09T21:11:20.033Z,3.55
2023-11-09T21:16:20.874Z,3.95
2023-11-09T21:21:23.060Z,4.25
2023-11-09T21:26:24.165Z,3.50
2023-11-09T21:31:25.198Z,4.07
2023-11-09T21:36:27.445Z,5.47
2023-11-09T21:41:28.713Z,3.47
2023-11-09T21:46:29.643Z,3.47
2023-11-09T21:51:34.035Z,3.00
2023-11-09T21:56:41.405Z,3.42
2023-11-09T22:01:42.504Z,3.95
2023-11-09T22:06:44.766Z,3.45
2023-11-09T22:11:45.873Z,3.83
2023-11-09T22:16:46.836Z,3.08
2023-11-09T22:21:49.989Z,3.22
2023-11-09T22:26:50.921Z,2.78
2023-11-09T22:31:51.763Z,3.25
2023-11-09T22:36:53.878Z,3.13
2023-11-09T22:41:55.414Z,2.70
2023-11-09T22:46:56.196Z,2.80
2023-11-09T22:51:58.691Z,3.10
2023-11-09T22:56:59.583Z,2.83
2023-11-09T23:02:01.065Z,3.05
2023-11-09T23:07:03.243Z,2.80
2023-11-09T23:12:04.413Z,2.63
2023-11-09T23:17:05.642Z,2.35
2023-11-09T23:22:07.839Z,2.30
2023-11-09T23:27:08.659Z,2.83
2023-11-09T23:32:10.057Z,2.05
2023-11-09T23:37:12.221Z,2.15
2023-11-09T23:42:13.113Z,2.50
2023-11-09T23:47:14.000Z,2.47
2023-11-09T23:52:16.630Z,2.17
2023-11-09T23:57:17.483Z,3.33
